LQTZ/TZL METAR and TAF weather

Enter ICAO airport designator
Station Type Date Time Source
LQTZ METAR 2022/07/01 00:00 UTC NOAA

LQTZ 010000Z 09005KT CAVOK 18/17 Q1014


Station Type Date Time Source
LQTZ Decoded METAR 2022/07/01 00:00 UTC NOAA

Tuzla, Bosnia and Herzegovina (LQTZ) 44-33N 018-42E
Jun 30, 2022 - 08:00 PM EDT / 2022.07.01 0000 UTC
Wind: from the E (090 degrees) at 6 MPH (5 KT):0
Visibility: greater than 7 mile(s):0
Temperature: 64 F (18 C)
Dew Point: 62 F (17 C)
Relative Humidity: 93%
Pressure (altimeter): 29.94 in. Hg (1014 hPa)
ob: LQTZ 010000Z 09005KT CAVOK 18/17 Q1014
cycle: 0

Station Type Date Time Source
LQTZ TAF 2022/06/30 18:07 UTC NOAA

TAF LQTZ 301700Z 3018/0118 VRB02KT CAVOK TX36/0114Z TN18/0103Z PROB40
TEMPO 3018/3021 VRB15KT 5000 TSRA FEW033CB BKN040 PROB30
TEMPO 0112/0118 VRB15KT TSRA FEW033CB SCT040

Example: see airport list